Time;durP1;ratioP1;P1;durP2;ratioP2;P2;SDS_P1;SDS_P2;PMS_P1;PMS_P2;Temp;Humidity;BMP_temperature;BMP_pressure;BME280_temperature;BME280_humidity;BME280_pressure;Samples;Min_cycle;Max_cycle;Signal;HPM_P1;HPM_P2
2022/07/16 00:03:41;;;;;;;5.05;1.70;;;18.00;99.90;;;;;;5018715;28;20107;-80
2022/07/16 00:06:07;;;;;;;3.45;1.58;;;18.00;99.90;;;;;;4996174;28;20163;-80
2022/07/16 00:08:33;;;;;;;4.05;1.40;;;17.90;99.90;;;;;;5000463;28;20047;-80
2022/07/16 00:10:59;;;;;;;7.55;1.42;;;17.80;99.90;;;;;;5009695;28;20109;-80
2022/07/16 00:13:24;;;;;;;6.38;1.50;;;17.70;99.90;;;;;;4995065;28;20701;-80
2022/07/16 00:15:50;;;;;;;7.38;1.85;;;17.50;99.90;;;;;;5032652;28;20052;-79
2022/07/16 00:21:00;;;;;;;4.47;1.40;;;17.40;99.90;;;;;;5034793;28;20052;-81
2022/07/16 00:23:26;;;;;;;4.47;1.70;;;17.30;99.90;;;;;;5003541;28;20048;-81
2022/07/16 00:25:52;;;;;;;5.38;1.23;;;17.30;99.90;;;;;;4982977;28;20159;-80
2022/07/16 00:28:18;;;;;;;4.03;1.10;;;17.30;99.90;;;;;;5030540;28;20064;-80
2022/07/16 00:30:43;;;;;;;4.35;1.40;;;17.20;99.90;;;;;;5023315;28;20483;-80
2022/07/16 00:33:09;;;;;;;4.13;1.30;;;17.00;99.90;;;;;;5010155;28;20129;-80
2022/07/16 00:35:35;;;;;;;3.58;0.98;;;17.20;99.90;;;;;;4994376;28;20044;-80
2022/07/16 00:38:00;;;;;;;5.88;1.33;;;17.20;99.90;;;;;;4994386;28;20159;-80
2022/07/16 00:40:27;;;;;;;3.75;1.00;;;17.20;99.90;;;;;;5024781;28;20044;-80
2022/07/16 00:42:53;;;;;;;3.13;0.77;;;17.10;99.90;;;;;;5013916;28;20121;-79
2022/07/16 00:45:19;;;;;;;3.90;1.08;;;17.00;99.90;;;;;;4996876;28;20061;-79
2022/07/16 00:47:44;;;;;;;4.38;0.95;;;17.10;99.90;;;;;;5024802;28;20459;-80
2022/07/16 00:50:10;;;;;;;2.40;1.00;;;17.20;99.90;;;;;;4996973;28;20058;-80
2022/07/16 00:52:36;;;;;;;4.75;1.10;;;17.10;99.90;;;;;;5043367;28;20092;-79
2022/07/16 00:55:03;;;;;;;3.05;1.80;;;17.10;99.90;;;;;;5013166;28;20139;-80
2022/07/16 00:57:28;;;;;;;3.58;1.30;;;17.10;99.90;;;;;;5029705;28;20040;-80
2022/07/16 00:59:54;;;;;;;3.58;1.35;;;17.10;99.90;;;;;;5023702;28;20051;-80
2022/07/16 01:02:20;;;;;;;3.65;1.63;;;17.10;99.90;;;;;;5014379;28;20490;-80
2022/07/16 01:04:46;;;;;;;3.65;1.23;;;17.10;99.90;;;;;;4995881;28;20052;-81
2022/07/16 01:07:12;;;;;;;3.78;1.48;;;17.10;99.90;;;;;;5028894;28;20040;-80
2022/07/16 01:09:38;;;;;;;2.97;1.38;;;17.10;99.90;;;;;;5018658;28;20063;-79
2022/07/16 01:12:05;;;;;;;2.88;1.30;;;17.10;99.90;;;;;;4997333;28;20049;-80
2022/07/16 01:14:31;;;;;;;2.88;1.20;;;17.10;99.90;;;;;;5015661;28;20079;-80
2022/07/16 01:16:57;;;;;;;3.33;1.45;;;17.10;99.90;;;;;;5022698;28;20068;-79
2022/07/16 01:19:23;;;;;;;3.53;1.27;;;17.20;99.90;;;;;;5031291;28;20048;-79
2022/07/16 01:21:48;;;;;;;3.20;1.30;;;17.20;99.90;;;;;;5005966;28;20472;-80
2022/07/16 01:24:14;;;;;;;3.63;1.30;;;17.20;99.90;;;;;;5004168;28;20057;-79
2022/07/16 01:26:40;;;;;;;4.35;1.17;;;17.20;99.90;;;;;;5010691;28;20044;-80
2022/07/16 01:29:06;;;;;;;4.57;1.30;;;17.20;99.90;;;;;;5023270;28;20471;-80
2022/07/16 01:31:31;;;;;;;2.75;1.23;;;17.10;99.90;;;;;;5017812;28;20059;-80
2022/07/16 01:36:41;;;;;;;3.70;1.27;;;17.20;99.90;;;;;;5024266;28;20049;-80
2022/07/16 01:39:07;;;;;;;3.75;1.10;;;17.10;99.90;;;;;;5042940;28;20621;-80
2022/07/16 01:41:33;;;;;;;3.72;1.20;;;17.10;99.90;;;;;;5013909;28;20389;-81
2022/07/16 01:43:59;;;;;;;3.17;1.30;;;17.10;99.90;;;;;;5018233;28;20048;-80
2022/07/16 01:46:25;;;;;;;3.80;1.25;;;17.00;99.90;;;;;;5033953;28;20044;-80
2022/07/16 01:48:51;;;;;;;2.90;1.20;;;17.00;99.90;;;;;;5008396;28;20037;-80
2022/07/16 01:51:16;;;;;;;3.55;1.10;;;17.00;99.90;;;;;;5038578;28;20056;-80
2022/07/16 01:53:42;;;;;;;3.35;1.42;;;17.00;99.90;;;;;;5019776;28;20044;-80
2022/07/16 01:56:08;;;;;;;2.63;1.42;;;17.00;99.90;;;;;;5022427;28;20060;-80
2022/07/16 01:58:34;;;;;;;3.47;1.30;;;17.00;99.90;;;;;;5005329;28;20049;-80
2022/07/16 02:00:59;;;;;;;4.32;1.48;;;17.00;99.90;;;;;;5017345;28;20969;-80
2022/07/16 02:03:25;;;;;;;5.43;1.50;;;16.90;99.90;;;;;;5026637;28;20040;-80
2022/07/16 02:05:51;;;;;;;4.18;1.40;;;16.90;99.90;;;;;;5036945;28;20056;-80
2022/07/16 02:08:17;;;;;;;5.68;1.40;;;16.90;99.90;;;;;;5007837;28;20128;-80
2022/07/16 02:10:42;;;;;;;3.00;1.20;;;16.90;99.90;;;;;;5037405;28;20083;-80
2022/07/16 02:13:08;;;;;;;3.25;1.35;;;16.90;99.90;;;;;;5023083;28;20556;-81
2022/07/16 02:15:34;;;;;;;4.32;1.20;;;16.90;99.90;;;;;;5038537;28;20049;-81
2022/07/16 02:18:00;;;;;;;3.50;1.65;;;16.90;99.90;;;;;;5052381;28;20053;-79
2022/07/16 02:20:26;;;;;;;2.92;1.10;;;16.80;99.90;;;;;;4989543;28;20049;-81
2022/07/16 02:22:53;;;;;;;7.20;1.75;;;16.80;99.90;;;;;;5035615;28;20040;-80
2022/07/16 02:25:19;;;;;;;4.55;1.50;;;16.80;99.90;;;;;;5023422;28;20040;-81
2022/07/16 02:30:29;;;;;;;4.20;1.80;;;16.70;99.90;;;;;;5036189;28;20102;-80
2022/07/16 02:32:55;;;;;;;4.95;1.70;;;16.70;99.90;;;;;;4992421;28;20041;-79
2022/07/16 02:35:21;;;;;;;4.07;1.35;;;16.70;99.90;;;;;;5035846;28;20052;-80
2022/07/16 02:37:46;;;;;;;3.03;1.70;;;16.60;99.90;;;;;;5033320;28;20051;-78
2022/07/16 02:40:13;;;;;;;4.05;1.38;;;16.50;99.90;;;;;;5004862;28;20057;-81
2022/07/16 02:42:39;;;;;;;5.07;1.60;;;16.50;99.90;;;;;;5023161;28;20048;-80
2022/07/16 02:45:07;;;;;;;3.05;1.40;;;16.50;99.90;;;;;;5037967;28;20098;-80
2022/07/16 02:47:34;;;;;;;5.07;1.83;;;16.40;99.90;;;;;;5015084;28;20084;-80
2022/07/16 02:49:59;;;;;;;5.28;1.55;;;16.40;99.90;;;;;;5021734;28;20045;-80
2022/07/16 02:52:25;;;;;;;3.88;1.40;;;16.40;99.90;;;;;;5000635;28;20048;-80
2022/07/16 02:54:51;;;;;;;5.18;1.80;;;16.40;99.90;;;;;;5001969;28;20052;-80
2022/07/16 02:57:17;;;;;;;5.90;1.30;;;16.40;99.90;;;;;;5036350;28;20048;-81
2022/07/16 02:59:42;;;;;;;5.82;1.70;;;16.40;99.90;;;;;;5020383;28;20056;-80
2022/07/16 03:02:08;;;;;;;4.28;1.30;;;16.30;99.90;;;;;;5008805;28;20059;-81
2022/07/16 03:04:34;;;;;;;6.60;1.40;;;16.30;99.90;;;;;;5021105;28;20140;-80
2022/07/16 03:06:59;;;;;;;5.00;1.15;;;16.30;99.90;;;;;;5035701;28;20086;-80
2022/07/16 03:09:25;;;;;;;4.82;1.30;;;16.20;99.90;;;;;;5034926;28;20174;-80
2022/07/16 03:11:51;;;;;;;3.30;1.02;;;16.10;99.90;;;;;;5020347;28;20044;-80
2022/07/16 03:14:16;;;;;;;2.88;0.95;;;16.10;99.90;;;;;;5016979;28;20059;-80
2022/07/16 03:16:42;;;;;;;4.65;1.17;;;16.00;99.90;;;;;;5007228;28;20053;-80
2022/07/16 03:19:08;;;;;;;4.30;1.20;;;15.90;99.90;;;;;;5035979;28;20057;-81
2022/07/16 03:21:33;;;;;;;5.30;1.23;;;15.90;99.90;;;;;;5018214;28;20109;-80
2022/07/16 03:23:59;;;;;;;3.20;1.20;;;15.90;99.90;;;;;;5018762;28;20049;-80
2022/07/16 03:26:25;;;;;;;5.32;1.45;;;15.90;99.90;;;;;;5005058;28;20044;-81
2022/07/16 03:28:51;;;;;;;6.30;1.40;;;15.90;99.90;;;;;;4999427;28;20087;-80
2022/07/16 03:31:17;;;;;;;4.32;1.10;;;15.80;99.90;;;;;;5019358;28;21367;-79
2022/07/16 03:33:43;;;;;;;7.50;1.38;;;15.80;99.90;;;;;;5024620;28;20056;-80
2022/07/16 03:36:10;;;;;;;5.68;1.20;;;15.80;99.90;;;;;;5020879;28;20110;-80
2022/07/16 03:41:20;;;;;;;5.35;1.42;;;15.80;99.90;;;;;;5023464;28;20487;-80
2022/07/16 03:43:45;;;;;;;3.60;1.30;;;15.70;99.90;;;;;;4998747;28;20063;-80
2022/07/16 03:46:13;;;;;;;4.45;1.15;;;15.70;99.90;;;;;;5040549;28;20067;-80
2022/07/16 03:48:40;;;;;;;3.45;1.20;;;15.70;99.90;;;;;;5036672;28;20113;-81
2022/07/16 03:51:06;;;;;;;3.95;1.27;;;15.60;99.90;;;;;;5034235;28;20053;-80
2022/07/16 03:53:36;;;;;;;5.38;1.42;;;15.60;99.90;;;;;;5035220;28;20130;-80
2022/07/16 03:56:02;;;;;;;2.83;1.20;;;15.60;99.90;;;;;;5009896;28;20479;-81
2022/07/16 03:58:29;;;;;;;4.65;1.38;;;15.60;99.90;;;;;;5014274;28;20451;-82
2022/07/16 04:00:55;;;;;;;2.67;1.05;;;15.60;99.90;;;;;;5002228;28;20052;-80
2022/07/16 04:03:21;;;;;;;5.57;1.23;;;15.50;99.90;;;;;;5017138;28;20484;-81
2022/07/16 04:05:47;;;;;;;5.35;1.40;;;15.50;99.90;;;;;;5021579;28;20053;-81
2022/07/16 04:08:13;;;;;;;3.67;1.42;;;15.50;99.90;;;;;;5019382;28;20055;-79
2022/07/16 04:10:39;;;;;;;5.03;1.48;;;15.50;99.90;;;;;;4991495;28;20040;-80
2022/07/16 04:13:05;;;;;;;4.13;1.30;;;15.50;99.90;;;;;;5036882;28;20056;-80
2022/07/16 04:15:30;;;;;;;4.28;1.00;;;15.50;99.90;;;;;;5035018;28;20509;-79
2022/07/16 04:17:56;;;;;;;4.50;1.08;;;15.50;99.90;;;;;;5036579;28;20518;-79
2022/07/16 04:20:22;;;;;;;3.90;1.10;;;15.50;99.90;;;;;;5005210;28;20066;-80
2022/07/16 04:22:48;;;;;;;4.40;1.10;;;15.50;99.90;;;;;;5021568;28;20127;-79
2022/07/16 04:25:13;;;;;;;5.20;1.65;;;15.50;99.90;;;;;;5012357;28;20056;-80
2022/07/16 04:27:42;;;;;;;4.82;1.15;;;15.50;99.90;;;;;;5002538;28;20127;-80
2022/07/16 04:30:10;;;;;;;5.75;1.60;;;15.50;99.90;;;;;;5034820;28;20091;-80
2022/07/16 04:32:37;;;;;;;4.75;1.25;;;15.50;99.90;;;;;;5037376;28;20248;-79
2022/07/16 04:35:04;;;;;;;4.30;1.58;;;15.50;99.90;;;;;;5035455;28;20049;-80
2022/07/16 04:37:29;;;;;;;4.35;1.38;;;15.50;99.90;;;;;;5018690;28;20122;-79
2022/07/16 04:39:55;;;;;;;2.55;1.27;;;15.50;99.90;;;;;;5018267;28;20048;-79
2022/07/16 04:42:21;;;;;;;5.50;1.30;;;15.60;99.90;;;;;;5018757;28;21856;-80
2022/07/16 04:44:47;;;;;;;4.97;1.30;;;15.50;99.90;;;;;;5004134;28;20139;-80
2022/07/16 04:47:12;;;;;;;5.22;1.70;;;15.50;99.90;;;;;;5018641;28;20555;-80
2022/07/16 04:49:38;;;;;;;6.10;1.50;;;15.60;99.90;;;;;;5018458;28;20431;-79
2022/07/16 04:52:04;;;;;;;3.63;1.00;;;15.60;99.90;;;;;;5004996;28;20075;-80
2022/07/16 04:54:30;;;;;;;2.65;1.02;;;15.60;99.90;;;;;;5023021;28;20049;-79
2022/07/16 04:56:56;;;;;;;2.40;0.80;;;15.60;99.90;;;;;;5013840;28;20056;-80
2022/07/16 04:59:22;;;;;;;3.28;0.95;;;15.60;99.90;;;;;;5022066;28;20044;-80
2022/07/16 05:01:47;;;;;;;2.08;0.95;;;15.60;99.90;;;;;;5039864;28;20502;-80
2022/07/16 05:04:13;;;;;;;3.03;0.90;;;15.60;99.90;;;;;;5022456;28;20571;-80
2022/07/16 05:06:39;;;;;;;3.70;1.13;;;15.60;99.90;;;;;;5023444;28;20043;-81
2022/07/16 05:09:04;;;;;;;3.38;1.23;;;15.60;99.90;;;;;;5024588;28;20051;-81
2022/07/16 05:11:30;;;;;;;6.90;1.42;;;15.60;99.90;;;;;;5039194;28;20120;-80
2022/07/16 05:13:56;;;;;;;4.28;1.30;;;15.50;99.90;;;;;;5038504;28;20068;-80
2022/07/16 05:16:23;;;;;;;3.90;1.20;;;15.50;99.90;;;;;;5017599;28;20098;-80
2022/07/16 05:18:49;;;;;;;6.82;1.27;;;15.60;99.90;;;;;;5039088;28;20060;-80
2022/07/16 05:21:15;;;;;;;2.75;0.93;;;15.60;99.90;;;;;;5038562;28;20095;-79
2022/07/16 05:23:41;;;;;;;5.43;1.40;;;15.60;99.90;;;;;;5039616;28;20037;-80
2022/07/16 05:26:07;;;;;;;2.75;0.95;;;15.60;99.90;;;;;;5020304;28;20051;-80
2022/07/16 05:28:33;;;;;;;2.70;1.08;;;15.70;99.90;;;;;;5036085;28;20045;-81
2022/07/16 05:30:59;;;;;;;5.70;1.10;;;15.80;99.90;;;;;;5026799;28;20139;-81
2022/07/16 05:33:24;;;;;;;3.17;0.80;;;15.90;99.90;;;;;;5005436;28;20137;-80
2022/07/16 05:35:51;;;;;;;18.70;1.33;;;16.00;99.90;;;;;;5023285;28;20047;-79
2022/07/16 05:38:17;;;;;;;2.53;0.95;;;16.20;99.90;;;;;;5038249;28;20078;-79
2022/07/16 05:40:43;;;;;;;2.67;0.90;;;16.20;99.90;;;;;;5029814;28;20191;-80
2022/07/16 05:43:10;;;;;;;2.97;0.90;;;16.40;99.90;;;;;;5041269;28;20135;-80
2022/07/16 05:45:37;;;;;;;3.80;1.38;;;16.50;99.90;;;;;;5009816;28;20059;-81
2022/07/16 05:48:03;;;;;;;2.85;1.10;;;16.50;99.90;;;;;;5009943;28;20044;-79
2022/07/16 05:50:29;;;;;;;2.75;1.08;;;16.50;99.90;;;;;;5040831;28;20131;-81
2022/07/16 05:52:54;;;;;;;4.55;1.40;;;16.50;99.90;;;;;;5010633;28;20124;-79
2022/07/16 05:55:21;;;;;;;4.32;1.05;;;16.50;99.90;;;;;;5024695;28;20052;-79
2022/07/16 05:57:50;;;;;;;2.97;1.15;;;16.50;99.90;;;;;;5029911;28;20167;-86
2022/07/16 06:00:16;;;;;;;4.13;1.00;;;16.60;99.90;;;;;;5024231;28;20052;-87
2022/07/16 06:02:42;;;;;;;3.50;1.10;;;16.60;99.90;;;;;;5042683;28;20040;-80
2022/07/16 06:05:09;;;;;;;3.38;1.00;;;16.60;99.90;;;;;;5019355;28;20068;-81
2022/07/16 06:07:34;;;;;;;5.50;1.13;;;16.60;99.90;;;;;;5022987;28;20105;-80
2022/07/16 06:10:00;;;;;;;4.68;1.30;;;16.60;99.90;;;;;;5004242;28;20064;-81
2022/07/16 06:12:26;;;;;;;4.47;1.25;;;16.70;99.90;;;;;;5003381;28;20099;-80
2022/07/16 06:14:52;;;;;;;5.22;1.20;;;16.70;99.90;;;;;;5022778;28;20372;-82
2022/07/16 06:17:18;;;;;;;6.28;1.30;;;16.70;99.90;;;;;;5020338;28;20110;-83
2022/07/16 06:19:44;;;;;;;3.75;1.00;;;16.80;99.90;;;;;;5008496;28;20099;-83
2022/07/16 06:22:12;;;;;;;3.70;0.85;;;16.80;99.90;;;;;;5021373;28;20052;-81
2022/07/16 06:24:38;;;;;;;5.90;1.15;;;16.80;99.90;;;;;;5007964;28;20048;-80
2022/07/16 06:27:04;;;;;;;5.10;1.10;;;16.80;99.90;;;;;;5002106;28;20040;-80
2022/07/16 06:29:30;;;;;;;4.03;1.10;;;16.80;99.90;;;;;;5000152;28;20090;-82
2022/07/16 06:31:55;;;;;;;2.33;0.90;;;16.90;99.90;;;;;;5022295;28;20558;-83
2022/07/16 06:34:21;;;;;;;2.58;1.00;;;16.80;99.90;;;;;;5038195;28;20074;-81
2022/07/16 06:36:47;;;;;;;3.05;1.10;;;16.90;99.90;;;;;;5023218;28;20037;-82
2022/07/16 06:39:13;;;;;;;5.57;0.82;;;17.00;99.90;;;;;;5002914;28;20044;-83
2022/07/16 06:41:39;;;;;;;2.95;1.10;;;17.10;99.90;;;;;;4988458;28;21198;-81
2022/07/16 06:44:09;;;;;;;4.28;1.00;;;17.20;99.90;;;;;;5021108;28;20442;-82
2022/07/16 06:46:36;;;;;;;2.30;0.80;;;17.20;99.90;;;;;;5021993;28;20151;-81
2022/07/16 06:49:01;;;;;;;5.75;0.80;;;17.40;99.90;;;;;;5035289;28;20518;-81
2022/07/16 06:51:28;;;;;;;4.60;1.20;;;17.50;99.90;;;;;;5000958;28;20131;-81
2022/07/16 06:53:53;;;;;;;2.90;1.20;;;17.60;99.90;;;;;;5022259;28;20072;-79
2022/07/16 06:56:19;;;;;;;7.57;1.00;;;17.70;99.90;;;;;;5027656;28;20225;-81
2022/07/16 06:58:45;;;;;;;3.38;0.90;;;17.80;99.90;;;;;;5014598;28;20101;-81
2022/07/16 07:01:11;;;;;;;4.75;0.95;;;17.90;99.90;;;;;;5023003;28;20059;-82
2022/07/16 07:03:41;;;;;;;2.25;0.80;;;17.70;99.90;;;;;;5024831;28;20645;-80
2022/07/16 07:06:07;;;;;;;3.90;0.70;;;18.00;99.90;;;;;;5020077;28;20050;-82
2022/07/16 07:08:34;;;;;;;4.57;0.95;;;18.00;99.90;;;;;;5020134;28;20044;-81
2022/07/16 07:11:00;;;;;;;3.70;0.68;;;18.00;99.90;;;;;;5037206;28;20067;-82
2022/07/16 07:13:27;;;;;;;2.50;0.75;;;18.20;99.90;;;;;;5020669;28;20478;-81
2022/07/16 07:15:52;;;;;;;3.47;0.80;;;18.40;99.90;;;;;;5022191;28;20429;-81
2022/07/16 07:18:18;;;;;;;3.92;1.17;;;18.50;99.90;;;;;;5022396;28;20044;-80
2022/07/16 07:20:44;;;;;;;2.30;0.70;;;18.60;99.90;;;;;;4987465;28;20056;-80
2022/07/16 07:23:10;;;;;;;2.40;0.90;;;18.80;99.90;;;;;;5018064;28;20395;-80
2022/07/16 07:25:36;;;;;;;3.92;0.90;;;19.00;99.90;;;;;;5020619;28;20502;-80
2022/07/16 07:28:02;;;;;;;2.60;0.73;;;19.20;99.90;;;;;;5001541;28;20053;-80
2022/07/16 07:30:28;;;;;;;2.70;1.02;;;19.40;99.90;;;;;;5016065;28;20055;-80
2022/07/16 07:32:54;;;;;;;4.00;0.82;;;19.60;99.90;;;;;;5020772;28;20049;-80
2022/07/16 07:35:20;;;;;;;3.53;0.80;;;19.80;99.90;;;;;;5021421;28;20119;-80
2022/07/16 07:37:45;;;;;;;3.38;1.00;;;19.90;99.30;;;;;;5035782;28;20705;-80
2022/07/16 07:40:12;;;;;;;3.08;0.70;;;20.00;99.40;;;;;;5020926;28;20063;-79
2022/07/16 07:42:37;;;;;;;2.45;0.70;;;20.20;99.20;;;;;;5003625;28;20056;-79
2022/07/16 07:45:05;;;;;;;2.95;0.88;;;20.30;98.80;;;;;;5021745;28;20053;-80
2022/07/16 07:47:31;;;;;;;3.85;0.90;;;20.50;98.60;;;;;;5037204;28;20519;-80
2022/07/16 07:49:58;;;;;;;2.67;0.75;;;20.60;98.40;;;;;;5015498;28;20124;-80
2022/07/16 07:52:24;;;;;;;3.70;0.93;;;20.90;98.20;;;;;;5020469;28;20506;-80
2022/07/16 07:54:50;;;;;;;2.92;0.77;;;21.10;97.40;;;;;;5025735;28;20041;-81
2022/07/16 07:57:16;;;;;;;2.30;0.70;;;21.10;97.30;;;;;;5030784;28;20625;-80
2022/07/16 07:59:42;;;;;;;3.95;0.95;;;21.00;97.30;;;;;;5041494;28;20052;-80
2022/07/16 08:02:08;;;;;;;2.45;0.68;;;21.10;97.40;;;;;;5024794;28;20065;-80
2022/07/16 08:04:34;;;;;;;3.33;0.93;;;21.10;97.30;;;;;;5022660;28;20099;-80
2022/07/16 08:06:59;;;;;;;3.05;0.90;;;21.00;97.30;;;;;;5030667;28;20047;-80
2022/07/16 08:09:25;;;;;;;2.95;1.13;;;20.90;97.40;;;;;;5010330;28;20986;-81
2022/07/16 08:11:51;;;;;;;3.97;0.95;;;20.60;97.70;;;;;;5006822;28;20052;-80
2022/07/16 08:14:17;;;;;;;3.25;0.90;;;20.70;98.20;;;;;;5004969;28;20127;-82
2022/07/16 08:16:43;;;;;;;3.78;0.90;;;21.00;98.30;;;;;;5021666;28;20076;-82
2022/07/16 08:19:09;;;;;;;3.85;0.80;;;21.00;97.70;;;;;;5030352;28;20139;-81
2022/07/16 08:21:35;;;;;;;5.07;1.17;;;20.90;98.00;;;;;;5036401;28;20468;-81
2022/07/16 08:26:45;;;;;;;3.13;0.75;;;20.70;97.90;;;;;;5038848;28;20159;-80
2022/07/16 08:29:12;;;;;;;4.90;0.98;;;20.90;97.90;;;;;;5020850;28;20041;-80
2022/07/16 08:31:37;;;;;;;3.28;0.90;;;21.10;97.90;;;;;;5010024;28;20482;-80
2022/07/16 08:34:04;;;;;;;3.90;0.98;;;21.50;97.90;;;;;;5039712;28;20855;-83
2022/07/16 08:36:29;;;;;;;2.13;0.77;;;21.50;97.50;;;;;;5004953;28;20083;-79
2022/07/16 08:38:55;;;;;;;2.17;0.70;;;21.50;97.50;;;;;;5022169;28;20115;-78
2022/07/16 08:41:21;;;;;;;4.45;1.08;;;21.50;97.50;;;;;;5025881;28;20044;-79
2022/07/16 08:43:48;;;;;;;5.53;0.82;;;21.40;97.40;;;;;;5026182;28;20053;-81
2022/07/16 08:46:17;;;;;;;3.92;0.90;;;21.20;97.60;;;;;;5024345;28;20099;-78
2022/07/16 08:48:44;;;;;;;3.65;0.98;;;21.10;98.10;;;;;;5020888;28;20053;-79
2022/07/16 08:51:10;;;;;;;3.03;0.80;;;20.90;98.60;;;;;;5010926;28;20953;-79
2022/07/16 08:53:37;;;;;;;2.97;0.90;;;20.70;99.00;;;;;;5025886;28;20103;-78
2022/07/16 08:56:03;;;;;;;3.95;0.88;;;20.80;99.30;;;;;;5040499;28;20048;-80
2022/07/16 08:58:31;;;;;;;2.42;0.90;;;21.10;99.00;;;;;;5023926;28;20052;-78
2022/07/16 09:00:57;;;;;;;3.22;0.90;;;21.20;98.70;;;;;;5040143;28;20072;-79
2022/07/16 09:03:23;;;;;;;3.75;1.20;;;21.40;98.60;;;;;;5008778;28;20056;-80
2022/07/16 09:05:50;;;;;;;4.53;0.90;;;21.70;98.50;;;;;;5010319;28;20048;-80
2022/07/16 09:08:19;;;;;;;4.38;1.15;;;21.90;98.50;;;;;;5027534;28;20040;-80
2022/07/16 09:10:45;;;;;;;3.60;1.15;;;21.80;98.80;;;;;;5025776;28;20056;-79
2022/07/16 09:13:12;;;;;;;3.95;1.00;;;21.60;99.30;;;;;;5027504;28;20131;-80
2022/07/16 09:15:41;;;;;;;4.15;1.00;;;21.50;99.70;;;;;;5033447;28;20094;-80
2022/07/16 09:18:24;;;;;;;2.58;0.80;;;21.60;99.60;;;;;;5034381;28;20048;-80
2022/07/16 09:21:00;;;;;;;4.45;0.88;;;22.20;98.90;;;;;;5043787;28;20549;-80
2022/07/16 09:23:35;;;;;;;4.72;1.13;;;22.40;98.30;;;;;;5027348;28;20532;-81
2022/07/16 09:26:03;;;;;;;4.67;1.00;;;22.50;98.00;;;;;;5027047;28;20045;-80
2022/07/16 09:28:43;;;;;;;2.83;1.17;;;22.90;97.90;;;;;;5043031;28;20407;-80
2022/07/16 09:31:10;;;;;;;2.38;0.82;;;23.20;96.80;;;;;;5042109;28;20040;-80
2022/07/16 09:33:36;;;;;;;5.25;1.02;;;23.30;96.40;;;;;;5026827;28;20135;-80
2022/07/16 09:36:11;;;;;;;3.63;0.98;;;23.30;95.60;;;;;;5025647;28;20127;-79
2022/07/16 09:38:52;;;;;;;5.45;0.98;;;23.30;95.30;;;;;;5019394;28;20407;-79
2022/07/16 09:41:19;;;;;;;3.13;1.10;;;23.20;94.60;;;;;;5040348;28;20055;-80
2022/07/16 09:43:45;;;;;;;4.43;1.15;;;23.40;95.50;;;;;;5039333;28;20083;-81
2022/07/16 09:46:24;;;;;;;2.55;0.90;;;23.70;95.10;;;;;;5010284;28;20154;-82
2022/07/16 09:48:51;;;;;;;2.10;0.77;;;23.80;92.80;;;;;;5050276;28;20040;-79
2022/07/16 09:51:26;;;;;;;3.03;0.98;;;23.80;92.00;;;;;;5039764;28;20432;-83
2022/07/16 09:53:53;;;;;;;3.03;0.93;;;24.00;91.10;;;;;;5026674;28;20055;-83
2022/07/16 09:56:22;;;;;;;2.67;0.80;;;24.30;91.30;;;;;;5058550;28;20076;-83
2022/07/16 09:58:50;;;;;;;2.70;0.93;;;24.50;90.60;;;;;;5025243;28;20051;-83
2022/07/16 10:01:17;;;;;;;3.08;0.90;;;24.50;89.90;;;;;;5025809;28;20450;-83
2022/07/16 10:03:44;;;;;;;2.22;0.80;;;24.70;88.90;;;;;;5042666;28;20466;-83
2022/07/16 10:06:10;;;;;;;2.10;0.70;;;24.70;87.40;;;;;;5008644;28;20159;-82
2022/07/16 10:08:37;;;;;;;2.97;0.90;;;24.80;85.50;;;;;;5025886;28;20769;-82
2022/07/16 10:11:04;;;;;;;4.40;1.00;;;24.90;85.20;;;;;;5026262;28;20052;-83
2022/07/16 10:13:32;;;;;;;2.13;0.88;;;25.10;83.90;;;;;;5011411;28;20055;-83
2022/07/16 10:15:57;;;;;;;3.97;1.10;;;25.00;83.30;;;;;;5032685;28;20049;-83
2022/07/16 10:18:30;;;;;;;5.50;0.93;;;25.30;83.80;;;;;;5042709;28;20055;-83
2022/07/16 10:21:10;;;;;;;3.05;1.08;;;25.40;80.80;;;;;;5025777;28;20059;-83
2022/07/16 10:23:38;;;;;;;2.53;0.90;;;25.10;80.80;;;;;;5043307;28;20044;-83
2022/07/16 10:26:21;;;;;;;2.97;0.88;;;24.90;81.80;;;;;;5025576;28;20052;-82
2022/07/16 10:28:56;;;;;;;5.57;1.23;;;25.00;82.60;;;;;;5016621;28;20036;-82
2022/07/16 10:31:40;;;;;;;3.60;1.00;;;24.90;83.50;;;;;;5023643;28;20049;-83
2022/07/16 10:34:15;;;;;;;3.33;0.90;;;25.10;82.80;;;;;;5029243;28;20423;-83
2022/07/16 10:36:53;;;;;;;5.05;1.10;;;25.20;82.70;;;;;;5034124;28;20041;-80
2022/07/16 10:39:20;;;;;;;3.42;1.05;;;25.20;83.20;;;;;;5031632;28;20050;-80
2022/07/16 10:41:54;;;;;;;4.07;1.20;;;25.30;82.90;;;;;;5037765;28;20048;-81
2022/07/16 10:44:22;;;;;;;3.67;1.17;;;25.60;81.90;;;;;;5016895;28;20389;-80
2022/07/16 10:47:00;;;;;;;3.55;0.98;;;25.80;81.00;;;;;;5038118;28;20069;-81
2022/07/16 10:49:28;;;;;;;3.13;1.00;;;26.00;79.40;;;;;;5017080;28;20045;-80
2022/07/16 10:52:05;;;;;;;3.85;1.10;;;26.30;80.30;;;;;;5037756;28;20075;-80
2022/07/16 10:54:31;;;;;;;2.53;1.10;;;26.70;77.60;;;;;;5021469;28;20132;-81
2022/07/16 10:56:59;;;;;;;3.03;0.98;;;26.40;78.30;;;;;;5022207;28;20143;-80
2022/07/16 10:59:48;;;;;;;1.67;0.63;;;26.30;78.50;;;;;;5024917;28;20040;-80
2022/07/16 11:02:17;;;;;;;4.32;0.95;;;25.80;76.50;;;;;;4997135;28;20048;-81
2022/07/16 11:04:45;;;;;;;4.43;0.88;;;25.30;77.40;;;;;;5036986;28;20047;-80
2022/07/16 11:07:17;;;;;;;3.72;0.98;;;24.90;78.10;;;;;;5039227;28;20066;-80
2022/07/16 11:09:45;;;;;;;4.43;1.13;;;24.80;80.00;;;;;;5039233;28;20044;-80
2022/07/16 11:12:18;;;;;;;2.90;0.90;;;24.90;80.80;;;;;;5024262;28;20049;-80
2022/07/16 11:14:46;;;;;;;3.95;0.95;;;25.00;79.70;;;;;;5039952;28;20056;-79
2022/07/16 11:17:13;;;;;;;3.60;0.90;;;25.00;79.00;;;;;;5039809;28;20369;-80
2022/07/16 11:19:48;;;;;;;2.95;1.00;;;25.00;78.90;;;;;;5038120;28;20052;-79
2022/07/16 11:22:17;;;;;;;2.90;0.90;;;25.10;78.10;;;;;;5038135;28;20487;-80
2022/07/16 11:24:53;;;;;;;4.47;1.10;;;24.90;77.90;;;;;;5034971;28;20080;-80
2022/07/16 11:27:25;;;;;;;4.28;1.02;;;24.80;77.80;;;;;;5038666;28;20040;-79
2022/07/16 11:29:56;;;;;;;4.22;1.30;;;25.20;79.10;;;;;;5026937;28;20036;-80
2022/07/16 11:32:22;;;;;;;4.00;1.20;;;25.40;77.90;;;;;;5022876;28;20055;-80
2022/07/16 11:34:48;;;;;;;4.20;0.88;;;25.50;77.00;;;;;;5036265;28;20044;-80
2022/07/16 11:37:14;;;;;;;4.28;1.00;;;25.50;76.30;;;;;;5023699;28;20052;-80
2022/07/16 11:39:40;;;;;;;2.55;0.77;;;25.30;75.30;;;;;;5035303;28;20047;-80
2022/07/16 11:42:06;;;;;;;3.63;0.80;;;25.00;75.40;;;;;;5019637;28;20488;-80
2022/07/16 11:44:36;;;;;;;2.95;0.85;;;25.10;75.50;;;;;;5034068;28;20063;-80
2022/07/16 11:47:04;;;;;;;3.88;1.00;;;25.40;75.20;;;;;;5040275;28;20138;-80
2022/07/16 11:49:39;;;;;;;3.65;0.88;;;25.50;73.30;;;;;;5020417;28;20395;-80
2022/07/16 11:52:26;;;;;;;3.15;0.80;;;25.80;72.60;;;;;;5022624;28;20052;-80
2022/07/16 11:54:55;;;;;;;4.22;0.88;;;25.80;72.20;;;;;;5037129;28;20453;-80
2022/07/16 11:57:21;;;;;;;4.60;0.93;;;26.00;71.50;;;;;;5037843;28;20712;-79
2022/07/16 11:59:52;;;;;;;1.60;0.68;;;26.00;71.00;;;;;;5020677;28;20044;-80
2022/07/16 12:02:25;;;;;;;3.97;1.00;;;26.30;70.30;;;;;;5029562;28;20554;-80
2022/07/16 12:05:00;;;;;;;2.80;0.88;;;26.10;69.30;;;;;;5021292;28;20494;-81
2022/07/16 12:07:25;;;;;;;2.72;0.75;;;26.30;69.20;;;;;;5006039;28;20056;-81
2022/07/16 12:09:54;;;;;;;4.22;0.93;;;26.40;69.60;;;;;;5019328;28;20047;-80
2022/07/16 12:12:30;;;;;;;2.97;0.82;;;26.30;68.30;;;;;;5036284;28;20051;-81
2022/07/16 12:14:58;;;;;;;5.28;0.98;;;26.00;67.50;;;;;;5022840;28;20123;-81
2022/07/16 12:17:30;;;;;;;4.15;1.00;;;25.70;68.60;;;;;;5023405;28;20085;-81
2022/07/16 12:20:23;;;;;;;4.35;0.95;;;25.30;69.20;;;;;;5034611;28;20059;-81
2022/07/16 12:23:14;;;;;;;3.78;1.33;;;25.10;68.90;;;;;;5024705;28;20132;-84
2022/07/16 12:25:45;;;;;;;3.03;0.80;;;25.20;69.50;;;;;;5027380;28;20052;-85
2022/07/16 12:28:17;;;;;;;1.85;0.70;;;25.60;70.50;;;;;;5032143;28;20053;-85
2022/07/16 12:30:49;;;;;;;4.05;0.80;;;25.70;68.30;;;;;;5043244;28;20044;-84
2022/07/16 12:33:15;;;;;;;3.05;0.95;;;25.70;68.70;;;;;;5026052;28;20567;-85
2022/07/16 12:35:47;;;;;;;8.38;1.10;;;25.70;68.50;;;;;;5044914;28;20051;-85
2022/07/16 12:38:50;;;;;;;3.92;0.73;;;25.60;68.40;;;;;;5034364;28;20056;-83
2022/07/16 12:41:21;;;;;;;3.45;0.80;;;25.70;68.80;;;;;;5040897;28;20487;-85
2022/07/16 12:43:55;;;;;;;2.10;0.80;;;26.10;67.30;;;;;;5022375;28;20586;-84
2022/07/16 12:46:24;;;;;;;2.05;0.75;;;26.40;67.10;;;;;;5020869;28;20136;-84
2022/07/16 12:49:03;;;;;;;3.05;0.93;;;26.50;66.20;;;;;;5025425;28;20544;-85
2022/07/16 12:51:33;;;;;;;2.78;0.80;;;26.60;65.40;;;;;;5048537;28;20051;-86
2022/07/16 12:54:05;;;;;;;4.05;0.80;;;26.90;65.80;;;;;;5040278;28;20166;-85
2022/07/16 12:59:25;;;;;;;2.83;0.80;;;26.40;64.10;;;;;;5036703;28;20531;-86
2022/07/16 13:01:55;;;;;;;3.25;0.95;;;26.10;64.70;;;;;;5024281;28;20049;-80
2022/07/16 13:04:24;;;;;;;6.35;1.00;;;26.10;64.50;;;;;;5056642;28;20048;-80
2022/07/16 13:06:52;;;;;;;3.88;0.90;;;26.40;64.90;;;;;;5023894;28;20518;-80
2022/07/16 13:09:19;;;;;;;2.08;0.80;;;26.40;65.30;;;;;;5024062;28;20051;-81